Time;durP1;ratioP1;P1;durP2;ratioP2;P2;SDS_P1;SDS_P2;PMS_P1;PMS_P2;Temp;Humidity;BMP_temperature;BMP_pressure;BME280_temperature;BME280_humidity;BME280_pressure;Samples;Min_cycle;Max_cycle;Signal;HPM_P1;HPM_P2
2022/07/30 00:01:29;;;;;;;1.63;1.25;;;22.10;52.50;22.20;100498.00;;;;4955258;28;93495;-64
2022/07/30 00:03:54;;;;;;;1.02;1.00;;;22.00;52.50;22.20;100500.00;;;;4954626;28;108661;-64
2022/07/30 00:06:20;;;;;;;1.15;0.95;;;22.00;52.60;22.10;100507.00;;;;4953366;28;123513;-64
2022/07/30 00:08:46;;;;;;;2.03;1.23;;;22.00;52.70;22.10;100505.00;;;;4953822;28;124504;-64
2022/07/30 00:11:12;;;;;;;0.95;0.93;;;21.90;52.80;22.10;100509.00;;;;4954719;28;92978;-64
2022/07/30 00:13:37;;;;;;;2.33;1.35;;;21.90;52.80;22.10;100507.00;;;;4955014;28;102261;-63
2022/07/30 00:16:03;;;;;;;2.78;1.33;;;21.90;53.00;22.00;100510.00;;;;4954353;28;122418;-64
2022/07/30 00:18:29;;;;;;;1.08;0.82;;;21.90;53.00;22.00;100513.00;;;;4954403;28;110878;-63
2022/07/30 00:20:54;;;;;;;1.58;0.95;;;21.80;53.10;22.00;100509.00;;;;4954309;28;106926;-63
2022/07/30 00:23:20;;;;;;;0.90;0.70;;;21.80;53.10;22.00;100504.00;;;;4954910;28;108367;-63
2022/07/30 00:25:46;;;;;;;1.30;1.15;;;21.80;53.20;21.90;100506.00;;;;4953172;28;121889;-64
2022/07/30 00:28:11;;;;;;;1.85;0.90;;;21.80;53.30;21.90;100506.00;;;;4952646;28;122781;-63
2022/07/30 00:30:39;;;;;;;1.88;1.30;;;21.70;53.40;21.90;100513.00;;;;4953396;28;110407;-61
2022/07/30 00:33:05;;;;;;;1.40;0.88;;;21.70;53.40;21.90;100510.00;;;;4955107;28;92937;-62
2022/07/30 00:35:31;;;;;;;1.98;1.77;;;21.70;53.50;21.80;100512.00;;;;4954315;28;94000;-63
2022/07/30 00:37:56;;;;;;;1.17;1.05;;;21.60;53.80;21.80;100513.00;;;;4953037;28;122738;-63
2022/07/30 00:40:22;;;;;;;2.65;0.75;;;21.60;53.70;21.80;100513.00;;;;4954182;28;112281;-63
2022/07/30 00:42:48;;;;;;;1.15;1.05;;;21.60;53.60;21.80;100514.00;;;;4936167;28;93029;-63
2022/07/30 00:45:16;;;;;;;1.10;0.75;;;21.60;53.70;21.80;100518.00;;;;4934809;28;119428;-63
2022/07/30 00:47:42;;;;;;;1.95;1.00;;;21.50;53.80;21.70;100524.00;;;;4954090;28;93713;-63
2022/07/30 00:50:11;;;;;;;3.30;1.20;;;21.60;53.80;21.70;100518.00;;;;4954364;28;97990;-63
2022/07/30 00:52:37;;;;;;;3.08;1.27;;;21.50;53.90;21.70;100514.00;;;;4954497;28;93103;-63
2022/07/30 00:55:06;;;;;;;0.90;0.75;;;21.50;53.90;21.70;100518.00;;;;4953456;28;94979;-63
2022/07/30 00:57:31;;;;;;;0.75;0.75;;;21.50;53.90;21.70;100527.00;;;;4954114;28;94674;-63
2022/07/30 00:59:57;;;;;;;1.75;1.05;;;21.50;54.00;21.60;100516.00;;;;4934825;28;109500;-63
2022/07/30 01:02:23;;;;;;;0.88;0.88;;;21.50;54.10;21.60;100519.00;;;;4954458;28;93098;-63
2022/07/30 01:04:48;;;;;;;2.35;1.10;;;21.40;54.20;21.60;100516.00;;;;4953674;28;103670;-63
2022/07/30 01:07:14;;;;;;;0.93;0.82;;;21.40;54.20;21.60;100517.00;;;;4953349;28;122361;-63
2022/07/30 01:09:40;;;;;;;3.28;1.17;;;21.40;54.30;21.60;100516.00;;;;4953493;28;109598;-63
2022/07/30 01:12:08;;;;;;;2.15;1.30;;;21.40;54.40;21.50;100505.00;;;;4953955;28;108001;-63
2022/07/30 01:14:36;;;;;;;2.20;1.00;;;21.40;54.50;21.50;100506.00;;;;4953816;28;93088;-63
2022/07/30 01:17:03;;;;;;;1.33;1.23;;;21.30;54.50;21.50;100514.00;;;;4953871;28;93056;-63
2022/07/30 01:19:54;;;;;;;1.00;0.90;;;21.30;54.50;21.50;100524.00;;;;4934614;28;93790;-63
2022/07/30 01:22:32;;;;;;;1.48;1.05;;;21.30;54.70;21.40;100509.00;;;;4954180;28;92854;-62
2022/07/30 01:25:11;;;;;;;1.58;1.48;;;21.20;55.20;21.30;100513.00;;;;4953071;28;106010;-62
2022/07/30 01:27:57;;;;;;;1.65;1.08;;;21.20;55.20;21.30;100503.00;;;;4935698;28;101225;-62
2022/07/30 01:30:27;;;;;;;1.20;1.10;;;21.10;55.20;21.30;100491.00;;;;4953816;28;94191;-62
2022/07/30 01:32:55;;;;;;;1.20;1.00;;;21.10;55.30;21.20;100493.00;;;;4934718;28;99386;-62
2022/07/30 01:35:24;;;;;;;0.93;0.73;;;21.00;55.40;21.20;100502.00;;;;4935460;28;93285;-62
2022/07/30 01:37:53;;;;;;;2.55;1.42;;;21.00;55.50;21.10;100505.00;;;;4935907;28;93029;-62
2022/07/30 01:40:19;;;;;;;1.02;0.93;;;21.00;55.70;21.10;100494.00;;;;4935195;28;92898;-62
2022/07/30 01:42:49;;;;;;;3.10;1.58;;;20.90;55.80;21.10;100496.00;;;;4954199;28;92667;-62
2022/07/30 01:45:16;;;;;;;1.30;0.82;;;20.90;55.80;21.10;100495.00;;;;4934124;28;95969;-62
2022/07/30 01:47:44;;;;;;;1.00;0.90;;;20.90;55.70;21.10;100491.00;;;;4934653;28;122830;-62
2022/07/30 01:50:13;;;;;;;1.77;1.52;;;20.90;55.80;21.00;100491.00;;;;4953530;28;110709;-62
2022/07/30 01:52:42;;;;;;;1.45;1.35;;;20.80;55.90;21.00;100487.00;;;;4935392;28;92908;-63
2022/07/30 01:55:11;;;;;;;1.25;0.90;;;20.80;56.00;21.00;100478.00;;;;4934161;28;109202;-63
2022/07/30 01:57:38;;;;;;;0.80;0.80;;;20.80;56.00;21.00;100489.00;;;;4953676;28;92898;-62
2022/07/30 02:00:06;;;;;;;0.73;0.73;;;20.80;56.10;21.00;100490.00;;;;4934126;28;109980;-63
2022/07/30 02:02:35;;;;;;;1.40;1.30;;;20.80;56.20;21.00;100484.00;;;;4935319;28;92184;-62
2022/07/30 02:05:01;;;;;;;1.65;1.05;;;20.80;56.20;20.90;100482.00;;;;4953172;28;95765;-63
2022/07/30 02:07:36;;;;;;;3.08;0.98;;;20.80;56.30;20.90;100476.00;;;;4952322;28;112903;-63
2022/07/30 02:10:14;;;;;;;2.00;1.38;;;20.80;56.30;20.90;100476.00;;;;4934938;28;93822;-63
2022/07/30 02:12:49;;;;;;;0.75;0.75;;;20.70;56.30;20.90;100476.00;;;;4953049;28;94323;-63
2022/07/30 02:15:26;;;;;;;1.10;1.00;;;20.70;56.30;20.90;100475.00;;;;4934965;28;93775;-63
2022/07/30 02:18:02;;;;;;;2.22;1.17;;;20.70;56.40;20.80;100478.00;;;;4935094;28;92971;-63
2022/07/30 02:20:31;;;;;;;3.60;1.23;;;20.70;56.40;20.80;100489.00;;;;4953351;28;92755;-63
2022/07/30 02:23:09;;;;;;;1.10;1.05;;;20.60;56.40;20.80;100484.00;;;;4952926;28;93012;-63
2022/07/30 02:25:42;;;;;;;1.13;0.75;;;20.60;56.50;20.80;100480.00;;;;4952716;28;93326;-63
2022/07/30 02:28:11;;;;;;;1.05;0.95;;;20.60;56.50;20.80;100478.00;;;;4953343;28;91971;-62
2022/07/30 02:30:48;;;;;;;2.03;1.42;;;20.60;56.60;20.80;100483.00;;;;4952692;28;92682;-63
2022/07/30 02:33:16;;;;;;;1.58;1.17;;;20.60;56.60;20.80;100481.00;;;;4952824;28;92783;-63
2022/07/30 02:35:41;;;;;;;1.75;1.15;;;20.60;56.70;20.70;100476.00;;;;4952154;28;101294;-63
2022/07/30 02:38:11;;;;;;;3.63;1.35;;;20.50;56.70;20.70;100484.00;;;;4933552;28;123345;-63
2022/07/30 02:40:41;;;;;;;4.18;1.33;;;20.50;56.90;20.70;100484.00;;;;4933895;28;92984;-63
2022/07/30 02:43:06;;;;;;;4.22;1.25;;;20.50;57.00;20.70;100476.00;;;;4934696;28;93197;-63
2022/07/30 02:45:33;;;;;;;2.40;1.27;;;20.50;57.00;20.60;100482.00;;;;4951539;28;122760;-63
2022/07/30 02:48:06;;;;;;;1.15;0.95;;;20.50;57.10;20.60;100473.00;;;;4933984;28;122492;-63
2022/07/30 02:50:33;;;;;;;1.10;1.05;;;20.50;57.30;20.60;100470.00;;;;4934304;28;93014;-63
2022/07/30 02:53:00;;;;;;;3.50;1.17;;;20.40;57.20;20.60;100467.00;;;;4959411;28;92105;-62
2022/07/30 02:55:29;;;;;;;1.77;1.25;;;20.40;57.30;20.60;100465.00;;;;4940546;28;93001;-63
2022/07/30 02:57:56;;;;;;;0.95;0.73;;;20.40;57.40;20.60;100468.00;;;;4940693;28;93867;-64
2022/07/30 03:00:24;;;;;;;0.85;0.85;;;20.40;57.50;20.60;100470.00;;;;4939849;28;100760;-63
2022/07/30 03:02:51;;;;;;;1.35;1.25;;;20.40;57.60;20.50;100474.00;;;;4959740;28;92890;-63
2022/07/30 03:05:18;;;;;;;1.20;1.10;;;20.40;57.70;20.50;100470.00;;;;4931925;28;108767;-63
2022/07/30 03:07:45;;;;;;;1.27;1.17;;;20.40;57.80;20.50;100471.00;;;;4957779;28;122493;-63
2022/07/30 03:10:12;;;;;;;1.83;1.08;;;20.40;57.90;20.50;100471.00;;;;4959330;28;93136;-63
2022/07/30 03:12:40;;;;;;;1.30;1.20;;;20.40;58.00;20.50;100481.00;;;;4959178;28;92926;-63
2022/07/30 03:15:06;;;;;;;1.05;1.02;;;20.30;58.10;20.50;100478.00;;;;4958515;28;93861;-63
2022/07/30 03:17:49;;;;;;;1.50;1.00;;;20.30;58.20;20.50;100478.00;;;;4940322;28;113100;-63
2022/07/30 03:20:20;;;;;;;1.63;1.45;;;20.30;58.30;20.50;100473.00;;;;4958995;28;94225;-64
2022/07/30 03:22:50;;;;;;;1.77;1.25;;;20.30;58.50;20.40;100481.00;;;;4940650;28;92875;-63
2022/07/30 03:25:23;;;;;;;1.67;1.40;;;20.30;58.60;20.40;100478.00;;;;4940398;28;94657;-63
2022/07/30 03:27:50;;;;;;;2.33;1.35;;;20.30;58.60;20.40;100489.00;;;;4939810;28;106916;-63
2022/07/30 03:30:17;;;;;;;1.90;1.17;;;20.20;58.70;20.40;100481.00;;;;4940188;28;92786;-63
2022/07/30 03:32:43;;;;;;;1.15;1.05;;;20.20;58.90;20.30;100487.00;;;;4958875;28;92630;-63
2022/07/30 03:35:10;;;;;;;1.35;0.90;;;20.20;59.00;20.30;100479.00;;;;4939883;28;93375;-63
2022/07/30 03:37:38;;;;;;;1.67;1.10;;;20.10;59.30;20.20;100477.00;;;;4959027;28;93689;-63
2022/07/30 03:40:06;;;;;;;1.35;1.25;;;20.10;59.50;20.20;100481.00;;;;4957816;28;92832;-63
2022/07/30 03:42:34;;;;;;;1.10;1.10;;;20.00;59.60;20.10;100480.00;;;;4940041;28;100124;-63
2022/07/30 03:45:04;;;;;;;0.80;0.80;;;20.00;59.70;20.10;100477.00;;;;4940122;28;95058;-63
2022/07/30 03:47:32;;;;;;;1.20;1.10;;;19.90;59.80;20.10;100481.00;;;;4958459;28;93038;-63
2022/07/30 03:49:58;;;;;;;2.85;1.63;;;19.90;59.90;20.10;100490.00;;;;4939389;28;93774;-62
2022/07/30 03:52:26;;;;;;;1.52;1.08;;;19.90;60.00;20.00;100485.00;;;;4940378;28;93009;-63
2022/07/30 03:54:52;;;;;;;0.70;0.70;;;19.90;60.20;20.00;100481.00;;;;4939509;28;108736;-63
2022/07/30 03:57:18;;;;;;;1.70;1.13;;;19.90;60.20;20.00;100484.00;;;;4940032;28;103506;-63
2022/07/30 03:59:45;;;;;;;0.90;0.75;;;19.80;60.20;20.00;100489.00;;;;4958798;28;92926;-63
2022/07/30 04:02:12;;;;;;;1.65;1.17;;;19.80;60.40;20.00;100483.00;;;;4939153;28;92816;-63
2022/07/30 04:04:42;;;;;;;2.83;1.10;;;19.80;60.40;20.00;100477.00;;;;4953951;28;94084;-63
2022/07/30 04:07:08;;;;;;;6.13;1.73;;;19.80;60.60;20.00;100480.00;;;;4955182;28;93638;-63
2022/07/30 04:09:34;;;;;;;1.83;1.00;;;19.80;60.80;20.00;100478.00;;;;4955117;28;92888;-63
2022/07/30 04:12:00;;;;;;;1.63;1.38;;;19.80;60.90;20.00;100482.00;;;;4954193;28;108431;-63
2022/07/30 04:14:26;;;;;;;1.50;1.20;;;19.80;60.80;20.00;100490.00;;;;4953585;28;123775;-63
2022/07/30 04:17:03;;;;;;;0.95;0.88;;;19.80;60.70;20.00;100483.00;;;;4954345;28;93943;-63
2022/07/30 04:19:34;;;;;;;0.95;0.85;;;19.80;60.80;20.00;100483.00;;;;4936207;28;92714;-64
2022/07/30 04:22:01;;;;;;;1.48;1.17;;;19.80;60.80;20.00;100482.00;;;;4955256;28;92799;-63
2022/07/30 04:24:30;;;;;;;1.30;1.20;;;19.80;60.80;20.00;100481.00;;;;4936156;28;95384;-63
2022/07/30 04:26:59;;;;;;;2.60;1.08;;;19.80;60.90;20.00;100489.00;;;;4954737;28;92808;-63
2022/07/30 04:29:24;;;;;;;1.45;1.35;;;19.80;61.00;20.00;100491.00;;;;4936651;28;93080;-63
2022/07/30 04:31:52;;;;;;;1.25;0.90;;;19.80;61.10;20.00;100500.00;;;;4954499;28;104688;-63
2022/07/30 04:34:18;;;;;;;2.58;0.70;;;19.80;61.20;20.00;100491.00;;;;4934469;28;105135;-63
2022/07/30 04:36:44;;;;;;;1.70;1.58;;;19.80;61.30;20.00;100497.00;;;;4936174;28;122284;-63
2022/07/30 04:39:11;;;;;;;2.10;1.40;;;19.80;61.30;20.00;100500.00;;;;4954640;28;93975;-63
2022/07/30 04:41:38;;;;;;;1.77;0.80;;;19.80;61.30;20.00;100492.00;;;;4935685;28;93128;-63
2022/07/30 04:44:04;;;;;;;2.45;1.00;;;19.80;61.30;20.00;100490.00;;;;4935680;28;93132;-63
2022/07/30 04:46:31;;;;;;;1.48;1.05;;;19.80;61.30;20.00;100502.00;;;;4954969;28;113490;-64
2022/07/30 04:48:56;;;;;;;2.58;1.50;;;19.80;61.40;20.00;100512.00;;;;4954827;28;92940;-63
2022/07/30 04:51:28;;;;;;;2.08;1.25;;;19.80;61.50;20.00;100510.00;;;;4954925;28;96603;-64
2022/07/30 04:53:56;;;;;;;1.42;1.27;;;19.80;61.60;20.00;100508.00;;;;4935595;28;97578;-64
2022/07/30 04:56:23;;;;;;;0.80;0.70;;;19.90;61.70;20.10;100508.00;;;;4936210;28;93542;-64
2022/07/30 04:58:51;;;;;;;1.20;1.10;;;19.90;61.70;20.10;100512.00;;;;4935882;28;92871;-63
2022/07/30 05:01:23;;;;;;;1.23;1.13;;;19.90;61.80;20.10;100509.00;;;;4954599;28;92811;-63
2022/07/30 05:03:51;;;;;;;0.82;0.82;;;19.90;61.90;20.10;100512.00;;;;4934389;28;94939;-62
2022/07/30 05:06:19;;;;;;;0.98;0.98;;;19.90;61.90;20.10;100511.00;;;;4934777;28;123217;-62
2022/07/30 05:08:45;;;;;;;1.27;1.13;;;19.90;61.90;20.10;100518.00;;;;4936075;28;93249;-62
2022/07/30 05:11:15;;;;;;;1.23;0.85;;;19.90;61.90;20.10;100513.00;;;;4953321;28;108492;-62
2022/07/30 05:13:43;;;;;;;1.60;1.00;;;19.90;61.90;20.20;100519.00;;;;4953394;28;94088;-62
2022/07/30 05:16:10;;;;;;;1.33;1.23;;;20.00;62.00;20.20;100516.00;;;;4953212;28;110069;-62
2022/07/30 05:18:37;;;;;;;1.13;0.95;;;20.00;61.90;20.20;100513.00;;;;4954377;28;92859;-62
2022/07/30 05:21:03;;;;;;;1.35;1.25;;;20.00;61.90;20.30;100515.00;;;;4954522;28;91998;-63
2022/07/30 05:23:29;;;;;;;1.27;1.17;;;20.10;62.00;20.30;100512.00;;;;4953498;28;93109;-62
2022/07/30 05:25:55;;;;;;;1.35;0.85;;;20.10;62.00;20.30;100517.00;;;;4953145;28;103140;-62
2022/07/30 05:28:21;;;;;;;2.13;1.00;;;20.10;62.00;20.30;100516.00;;;;4952754;28;109951;-61
2022/07/30 05:30:47;;;;;;;1.38;0.80;;;20.20;62.30;20.30;100520.00;;;;4954076;28;93002;-63
2022/07/30 05:33:13;;;;;;;2.22;1.65;;;20.20;62.90;20.30;100526.00;;;;4953347;28;94368;-63
2022/07/30 05:35:39;;;;;;;1.35;1.25;;;20.10;63.20;20.30;100515.00;;;;4952593;28;92861;-63
2022/07/30 05:38:05;;;;;;;2.25;1.30;;;20.10;63.10;20.20;100518.00;;;;4953933;28;93741;-64
2022/07/30 05:40:30;;;;;;;1.35;1.15;;;20.00;63.50;20.20;100523.00;;;;4953927;28;93535;-64
2022/07/30 05:42:56;;;;;;;1.27;0.93;;;20.00;63.80;20.10;100525.00;;;;4951877;28;123398;-62
2022/07/30 05:45:22;;;;;;;1.55;1.45;;;19.90;65.20;20.00;100534.00;;;;4952017;28;121712;-62
2022/07/30 05:47:47;;;;;;;1.35;1.20;;;19.90;66.20;19.90;100531.00;;;;4953646;28;92828;-63
2022/07/30 05:50:13;;;;;;;5.10;1.45;;;19.70;67.10;19.80;100532.00;;;;4952625;28;108477;-64
2022/07/30 05:52:39;;;;;;;1.17;0.73;;;19.60;67.70;19.70;100531.00;;;;4951769;28;123825;-64
2022/07/30 05:55:05;;;;;;;1.42;1.13;;;19.60;68.30;19.60;100545.00;;;;4951706;28;124713;-63
2022/07/30 05:57:35;;;;;;;1.10;0.98;;;19.50;68.80;19.60;100535.00;;;;4934549;28;95149;-63
2022/07/30 06:00:04;;;;;;;2.83;1.20;;;19.40;69.10;19.50;100538.00;;;;4953466;28;93039;-64
2022/07/30 06:02:30;;;;;;;3.45;1.40;;;19.40;69.70;19.50;100546.00;;;;4953287;28;93913;-63
2022/07/30 06:04:56;;;;;;;1.55;1.27;;;19.40;70.40;19.50;100541.00;;;;4949417;28;123312;-62
2022/07/30 06:07:21;;;;;;;2.10;0.93;;;19.40;71.20;19.50;100536.00;;;;4948807;28;104980;-62
2022/07/30 06:09:47;;;;;;;1.30;1.20;;;19.40;71.60;19.50;100550.00;;;;4949595;28;93710;-62
2022/07/30 06:12:13;;;;;;;2.53;0.88;;;19.30;71.90;19.50;100544.00;;;;4949537;28;94295;-62
2022/07/30 06:14:39;;;;;;;0.82;0.73;;;19.30;72.60;19.50;100546.00;;;;4948164;28;122536;-62
2022/07/30 06:17:05;;;;;;;1.10;0.95;;;19.30;73.50;19.40;100546.00;;;;4948075;28;109368;-63
2022/07/30 06:19:30;;;;;;;1.58;1.35;;;19.20;74.10;19.40;100550.00;;;;4948353;28;109826;-63
2022/07/30 06:21:56;;;;;;;1.05;0.95;;;19.20;74.90;19.40;100553.00;;;;4948659;28;94575;-63
2022/07/30 06:24:22;;;;;;;1.02;0.95;;;19.20;75.50;19.30;100546.00;;;;4930020;28;114952;-63
2022/07/30 06:26:47;;;;;;;1.80;0.98;;;19.20;76.80;19.40;100556.00;;;;4948565;28;92737;-64
2022/07/30 06:29:13;;;;;;;1.80;0.98;;;19.20;77.40;19.30;100551.00;;;;4948621;28;108172;-62
2022/07/30 06:31:40;;;;;;;1.13;0.90;;;19.10;78.10;19.30;100545.00;;;;4947433;28;122332;-63
2022/07/30 06:34:06;;;;;;;1.08;0.98;;;19.10;78.80;19.30;100551.00;;;;4949409;28;92934;-63
2022/07/30 06:36:32;;;;;;;2.95;1.27;;;19.10;80.00;19.20;100559.00;;;;4948761;28;92928;-62
2022/07/30 06:38:57;;;;;;;1.05;0.95;;;19.10;81.20;19.20;100558.00;;;;4948611;28;109504;-63
2022/07/30 06:41:24;;;;;;;1.13;1.10;;;19.00;83.30;19.10;100548.00;;;;4946163;28;114136;-63
2022/07/30 06:43:50;;;;;;;2.60;1.52;;;19.00;84.90;19.10;100550.00;;;;4948166;28;94901;-64
2022/07/30 06:46:16;;;;;;;1.40;1.30;;;18.90;85.90;19.00;100553.00;;;;4949704;28;92968;-61
2022/07/30 06:48:42;;;;;;;3.22;1.55;;;18.80;89.00;18.90;100563.00;;;;4949043;28;92988;-62
2022/07/30 06:51:08;;;;;;;0.90;0.90;;;18.80;90.10;18.90;100565.00;;;;4947614;28;122133;-62
2022/07/30 06:53:34;;;;;;;1.45;0.85;;;18.80;90.80;18.90;100564.00;;;;4948236;28;122965;-63
2022/07/30 06:56:00;;;;;;;8.15;1.98;;;18.70;91.70;18.80;100568.00;;;;4948468;28;93333;-63
2022/07/30 06:58:25;;;;;;;2.85;1.10;;;18.70;92.60;18.80;100567.00;;;;4949237;28;109556;-63
2022/07/30 07:00:51;;;;;;;1.42;1.23;;;18.60;93.60;18.80;100569.00;;;;4947268;28;120419;-62
2022/07/30 07:03:17;;;;;;;1.17;1.02;;;18.60;93.90;18.70;100569.00;;;;4948664;28;113755;-62
2022/07/30 07:05:42;;;;;;;1.30;1.20;;;18.60;94.50;18.70;100570.00;;;;4947098;28;110322;-63
2022/07/30 07:08:08;;;;;;;2.03;1.48;;;18.50;95.40;18.60;100569.00;;;;4948645;28;93116;-63
2022/07/30 07:10:34;;;;;;;1.77;1.40;;;18.50;96.20;18.50;100572.00;;;;4947164;28;122341;-63
2022/07/30 07:12:59;;;;;;;1.40;1.25;;;18.40;97.10;18.50;100567.00;;;;4947406;28;123918;-63
2022/07/30 07:15:25;;;;;;;3.42;1.75;;;18.30;97.50;18.40;100581.00;;;;4949222;28;93192;-63
2022/07/30 07:17:51;;;;;;;1.92;1.73;;;18.30;98.10;18.40;100571.00;;;;4949056;28;93111;-63
2022/07/30 07:20:17;;;;;;;2.13;1.58;;;18.30;98.60;18.40;100568.00;;;;4947432;28;123188;-63
2022/07/30 07:22:43;;;;;;;5.22;2.25;;;18.30;99.10;18.40;100578.00;;;;4947123;28;123406;-63
2022/07/30 07:25:09;;;;;;;3.85;2.05;;;18.30;99.60;18.50;100583.00;;;;4948147;28;101375;-63
2022/07/30 07:27:36;;;;;;;2.53;1.88;;;18.30;99.90;18.50;100578.00;;;;4948896;28;92812;-63
2022/07/30 07:30:04;;;;;;;2.08;1.85;;;18.30;99.90;18.50;100586.00;;;;4948066;28;97865;-63
2022/07/30 07:32:29;;;;;;;4.03;2.10;;;18.30;99.90;18.50;100587.00;;;;4948121;28;94580;-63
2022/07/30 07:34:55;;;;;;;3.85;1.73;;;18.30;99.90;18.50;100593.00;;;;4947258;28;109972;-63
2022/07/30 07:37:21;;;;;;;1.90;1.05;;;18.30;99.90;18.50;100593.00;;;;4948168;28;109843;-63
2022/07/30 07:39:46;;;;;;;11.27;7.70;;;18.30;99.90;18.50;100592.00;;;;4951054;28;108546;-63
2022/07/30 07:42:12;;;;;;;46.33;29.48;;;18.30;99.90;18.50;100583.00;;;;4950077;28;121714;-63
2022/07/30 07:44:38;;;;;;;36.30;29.98;;;18.30;99.90;18.50;100594.00;;;;4951266;28;92850;-63
2022/07/30 07:47:03;;;;;;;10.80;5.50;;;18.30;99.90;18.50;100595.00;;;;4950912;28;107985;-62
2022/07/30 07:49:29;;;;;;;10.07;9.00;;;18.30;99.90;18.50;100583.00;;;;4938164;28;122608;-62
2022/07/30 07:51:55;;;;;;;3.50;3.15;;;18.40;99.90;18.60;100589.00;;;;4951715;28;97523;-63
2022/07/30 07:54:20;;;;;;;3.60;2.72;;;18.60;99.90;18.60;100586.00;;;;4951242;28;109466;-62
2022/07/30 07:56:47;;;;;;;17.90;12.80;;;18.40;99.90;18.70;100588.00;;;;4951776;28;93186;-62
2022/07/30 07:59:13;;;;;;;72.68;41.65;;;18.50;99.90;18.70;100597.00;;;;4951299;28;94158;-62
2022/07/30 08:01:39;;;;;;;218.45;132.05;;;18.60;99.90;18.80;100590.00;;;;4949972;28;104667;-62
2022/07/30 08:04:05;;;;;;;48.33;37.75;;;18.60;99.90;18.80;100598.00;;;;4949263;28;111648;-62
2022/07/30 08:06:30;;;;;;;12.40;11.00;;;18.60;99.90;18.80;100588.00;;;;4950410;28;92889;-62
2022/07/30 08:08:56;;;;;;;8.10;4.95;;;18.60;99.90;18.80;100601.00;;;;4949520;28;123506;-62
2022/07/30 08:11:22;;;;;;;8.13;4.63;;;18.60;99.90;18.70;100593.00;;;;4951190;28;105714;-62
2022/07/30 08:13:47;;;;;;;3.28;2.97;;;18.60;99.90;18.70;100589.00;;;;4950634;28;110771;-62
2022/07/30 08:16:13;;;;;;;2.78;2.58;;;18.60;99.90;18.70;100590.00;;;;4951330;28;109045;-63
2022/07/30 08:18:39;;;;;;;2.53;2.28;;;18.60;99.90;18.80;100590.00;;;;4950840;28;94162;-62
2022/07/30 08:21:07;;;;;;;2.40;2.20;;;18.60;99.90;18.90;100594.00;;;;4950573;28;107109;-62
2022/07/30 08:23:32;;;;;;;3.38;2.45;;;18.70;99.90;18.90;100604.00;;;;4952064;28;92631;-62
2022/07/30 08:25:59;;;;;;;3.40;2.88;;;18.70;99.90;19.00;100596.00;;;;4949810;28;108201;-62
2022/07/30 08:28:25;;;;;;;3.88;2.05;;;18.80;99.90;19.10;100597.00;;;;4951429;28;93248;-62
2022/07/30 08:30:51;;;;;;;2.53;2.25;;;18.90;99.90;19.10;100607.00;;;;4950478;28;93707;-61
2022/07/30 08:33:17;;;;;;;3.13;1.73;;;18.90;99.90;19.20;100608.00;;;;4951565;28;93074;-61
2022/07/30 08:35:43;;;;;;;1.73;1.40;;;19.00;99.90;19.20;100604.00;;;;4951263;28;91959;-61
2022/07/30 08:38:08;;;;;;;3.97;2.55;;;19.00;99.90;19.30;100608.00;;;;4950715;28;94337;-61
2022/07/30 08:40:34;;;;;;;6.20;2.42;;;19.10;99.90;19.30;100596.00;;;;4949105;28;122255;-61
2022/07/30 08:43:03;;;;;;;3.15;1.70;;;19.10;99.90;19.40;100606.00;;;;4951443;28;93876;-61
2022/07/30 08:45:31;;;;;;;2.08;1.67;;;19.20;99.90;19.50;100609.00;;;;4951029;28;92979;-62
2022/07/30 08:48:00;;;;;;;1.85;1.33;;;19.30;99.90;19.50;100613.00;;;;4950521;28;93593;-62
2022/07/30 08:50:29;;;;;;;3.45;1.73;;;19.30;99.90;19.60;100608.00;;;;4945591;28;92940;-63
2022/07/30 08:52:56;;;;;;;4.20;2.13;;;19.40;99.90;19.60;100607.00;;;;4948751;28;92827;-62
2022/07/30 08:55:22;;;;;;;15.02;11.10;;;19.40;99.90;19.70;100614.00;;;;4950618;28;93067;-61
2022/07/30 08:57:49;;;;;;;6.97;6.30;;;19.50;99.90;19.80;100615.00;;;;4948909;28;110793;-62
2022/07/30 09:00:15;;;;;;;4.22;2.95;;;19.50;99.90;19.80;100615.00;;;;4951221;28;93386;-62
2022/07/30 09:02:41;;;;;;;5.60;2.67;;;19.60;99.90;19.90;100617.00;;;;4951147;28;92824;-62
2022/07/30 09:05:09;;;;;;;4.95;2.78;;;19.60;99.90;19.90;100617.00;;;;4950382;28;108786;-61
2022/07/30 09:07:36;;;;;;;3.35;1.85;;;19.70;99.90;20.00;100617.00;;;;4949531;28;111771;-61
2022/07/30 09:10:07;;;;;;;10.13;9.20;;;19.80;99.90;20.10;100622.00;;;;4951448;28;93501;-62
2022/07/30 09:12:41;;;;;;;3.47;2.20;;;19.90;99.90;20.20;100622.00;;;;4949783;28;93225;-62
2022/07/30 09:15:17;;;;;;;2.10;1.90;;;19.90;99.90;20.40;100626.00;;;;4950708;28;92767;-62
2022/07/30 09:17:57;;;;;;;2.80;2.60;;;20.10;99.90;20.60;100623.00;;;;4950239;28;94052;-61
2022/07/30 09:20:33;;;;;;;6.70;2.83;;;20.20;99.90;20.70;100620.00;;;;4949578;28;93121;-61
2022/07/30 09:23:04;;;;;;;2.38;2.25;;;20.40;99.90;20.90;100621.00;;;;4950836;28;92669;-62
2022/07/30 09:25:45;;;;;;;1.50;1.40;;;20.60;99.90;21.00;100619.00;;;;4941173;28;93407;-62
2022/07/30 09:28:11;;;;;;;2.20;1.75;;;20.70;99.90;21.20;100629.00;;;;4950038;28;93538;-62
2022/07/30 09:30:53;;;;;;;1.85;1.60;;;20.90;99.90;21.40;100613.00;;;;4949045;28;115932;-62
2022/07/30 09:33:41;;;;;;;2.20;2.05;;;21.00;99.90;21.70;100628.00;;;;4950390;28;93775;-63
2022/07/30 09:36:14;;;;;;;4.53;2.00;;;21.30;99.90;21.90;100640.00;;;;4950871;28;92985;-62
2022/07/30 09:38:51;;;;;;;2.30;1.45;;;21.60;99.90;22.20;100632.00;;;;4949088;28;110892;-63
2022/07/30 09:41:37;;;;;;;4.10;2.17;;;21.80;99.90;22.50;100635.00;;;;4950658;28;93048;-63
2022/07/30 09:44:05;;;;;;;1.83;1.65;;;22.10;99.90;22.70;100637.00;;;;4950855;28;93056;-63
2022/07/30 09:46:50;;;;;;;6.65;1.83;;;22.30;99.90;22.90;100633.00;;;;4931487;28;93216;-63
2022/07/30 09:49:25;;;;;;;1.48;1.35;;;22.50;99.90;23.20;100630.00;;;;4943897;28;94125;-62
2022/07/30 09:51:53;;;;;;;3.30;2.10;;;22.80;99.90;23.30;100638.00;;;;4949516;28;93228;-62
2022/07/30 09:54:18;;;;;;;7.18;6.25;;;22.90;99.90;23.50;100631.00;;;;4950488;28;93294;-62
2022/07/30 09:56:47;;;;;;;3.72;2.63;;;23.10;99.90;23.60;100636.00;;;;4949623;28;109076;-62
2022/07/30 09:59:27;;;;;;;2.30;1.80;;;23.20;99.50;23.70;100632.00;;;;4949445;28;93754;-62
2022/07/30 10:01:54;;;;;;;2.83;1.80;;;23.40;98.80;23.80;100637.00;;;;4947796;28;93792;-63
2022/07/30 10:04:29;;;;;;;1.23;0.98;;;23.50;98.30;24.00;100632.00;;;;4949328;28;92778;-63
2022/07/30 10:06:57;;;;;;;1.73;1.58;;;23.60;97.80;24.10;100630.00;;;;4946521;28;92821;-62
2022/07/30 10:09:35;;;;;;;5.07;3.38;;;23.70;97.20;24.20;100632.00;;;;4949729;28;93340;-63
2022/07/30 10:12:04;;;;;;;4.13;2.55;;;23.80;96.50;24.20;100632.00;;;;4949949;28;93383;-63
2022/07/30 10:14:34;;;;;;;3.33;2.00;;;24.00;95.90;24.30;100618.00;;;;4950168;28;92804;-62
2022/07/30 10:17:01;;;;;;;1.90;1.67;;;24.00;95.20;24.40;100623.00;;;;4950408;28;101638;-63
2022/07/30 10:19:27;;;;;;;1.30;1.20;;;24.10;94.70;24.40;100636.00;;;;4949862;28;93964;-62
2022/07/30 10:21:56;;;;;;;6.38;1.33;;;24.20;94.10;24.50;100634.00;;;;4949026;28;93383;-63
2022/07/30 10:24:23;;;;;;;1.52;1.27;;;24.20;93.60;24.60;100634.00;;;;4947077;28;93892;-63
2022/07/30 10:26:53;;;;;;;1.52;1.42;;;24.30;93.20;24.70;100636.00;;;;4949173;28;94552;-62
2022/07/30 10:29:20;;;;;;;3.63;1.75;;;24.30;92.40;24.80;100638.00;;;;4931726;28;93493;-62
2022/07/30 10:31:48;;;;;;;1.95;1.77;;;24.40;91.90;24.70;100634.00;;;;4948847;28;93270;-63
2022/07/30 10:34:16;;;;;;;1.38;1.27;;;24.40;91.10;24.70;100641.00;;;;4950177;28;92824;-64
2022/07/30 10:36:51;;;;;;;2.25;1.55;;;24.40;90.80;24.80;100638.00;;;;4948646;28;92802;-62
2022/07/30 10:39:24;;;;;;;3.85;2.15;;;24.50;90.40;24.90;100641.00;;;;4931700;28;93628;-63
2022/07/30 10:42:18;;;;;;;1.70;1.55;;;24.50;90.10;25.00;100646.00;;;;4949366;28;92749;-63
2022/07/30 10:45:07;;;;;;;3.53;1.75;;;24.60;89.90;25.00;100651.00;;;;4947533;28;93053;-63
2022/07/30 10:47:33;;;;;;;3.28;1.77;;;24.70;88.10;25.00;100648.00;;;;4930751;28;100786;-63